^^
Jimboomba-Weather Station Historical Data
 
Daily Summary for October 19, 2021 Units:  Metric    English   Both
Daily Weekly Monthly Yearly
  Current: High: Low: Average:
Temperature: 19.2 °C 19.2 °C 12.6 °C 13.9 °C
Dew Point: 16.8 °C 16.8 °C 11.6 °C 12.9 °C
Humidity: 86% 94% 86% 93%
Wind Speed: 0km/h 0km/h 0km/h 0km/h
Wind Gust: 0km/h 0km/h - -
WindCalm - - North
Pressure: 1013.9 hPa 1014.0 hPa 1011.9 hPa -
Precipitation: 0.2 mm      
 
 
Tabular Data for October 19, 2021
Time Temperature Dew Point Pressure Wind Wind Speed Wind Gust Humidity Rainfall Rate (Hourly) solar
00:00 14.2 °C 13.1 °C 1013.0 hPa Calm     93% 0.0 mm W/m2
00:15 14.1 °C 12.9 °C 1013.0 hPa Calm     93% 0.0 mm W/m2
00:30 13.9 °C 12.8 °C 1012.9 hPa Calm     93% 0.0 mm W/m2
00:45 13.7 °C 12.6 °C 1012.7 hPa Calm     93% 0.0 mm W/m2
01:00 13.7 °C 12.6 °C 1012.6 hPa Calm     93% 0.0 mm W/m2
01:15 13.6 °C 12.5 °C 1012.5 hPa Calm     93% 0.0 mm W/m2
01:30 13.4 °C 12.3 °C 1012.3 hPa Calm     93% 0.0 mm W/m2
01:45 13.3 °C 12.2 °C 1012.0 hPa Calm     93% 0.0 mm W/m2
02:00 13.4 °C 12.4 °C 1011.9 hPa Calm     94% 0.0 mm W/m2
02:15 13.4 °C 12.3 °C 1011.9 hPa Calm     93% 0.0 mm W/m2
02:30 13.3 °C 12.2 °C 1012.0 hPa Calm     93% 0.0 mm W/m2
02:45 13.3 °C 12.3 °C 1012.0 hPa Calm     94% 0.0 mm W/m2
03:00 13.2 °C 12.3 °C 1011.9 hPa Calm     94% 0.0 mm W/m2
03:15 13.1 °C 12.2 °C 1011.9 hPa Calm     94% 0.0 mm W/m2
03:30 13.1 °C 12.1 °C 1011.9 hPa Calm     94% 0.0 mm W/m2
03:45 12.9 °C 12 °C 1011.9 hPa Calm     94% 0.2 mm W/m2
04:00 12.8 °C 11.9 °C 1011.9 hPa Calm     94% 0.0 mm W/m2
04:15 12.8 °C 11.9 °C 1011.9 hPa Calm     94% 0.0 mm W/m2
04:30 12.7 °C 11.8 °C 1012.0 hPa Calm     94% 0.0 mm W/m2
04:45 12.6 °C 11.7 °C 1012.0 hPa Calm     94% 0.0 mm W/m2
05:00 12.6 °C 11.6 °C 1012.2 hPa Calm     94% 0.0 mm W/m2
05:15 12.6 °C 11.7 °C 1012.3 hPa Calm     94% 0.0 mm W/m2
05:30 12.6 °C 11.6 °C 1012.4 hPa Calm     94% 0.0 mm W/m2
05:45 12.6 °C 11.7 °C 1012.4 hPa Calm     94% 0.0 mm W/m2
06:00 12.9 °C 12 °C 1012.6 hPa Calm     94% 0.0 mm W/m2
06:15 13.5 °C 12.6 °C 1012.8 hPa Calm     94% 0.0 mm W/m2
06:30 13.9 °C 13 °C 1013.0 hPa Calm     94% 0.0 mm W/m2
06:45 14.3 °C 13.4 °C 1013.1 hPa Calm     94% 0.0 mm W/m2
07:00 14.7 °C 13.8 °C 1013.3 hPa Calm     94% 0.0 mm W/m2
07:15 15.6 °C 14.6 °C 1013.4 hPa Calm     94% 0.0 mm W/m2
07:30 15.8 °C 14.8 °C 1013.5 hPa Calm     94% 0.0 mm W/m2
07:45 16.1 °C 15.2 °C 1013.6 hPa Calm     94% 0.0 mm W/m2
08:00 16.8 °C 15.8 °C 1014.0 hPa Calm     94% 0.0 mm W/m2
08:15 18 °C 16.7 °C 1013.9 hPa Calm     92% 0.0 mm W/m2
08:30 19.2 °C 16.8 °C 1013.9 hPa Calm     86% 0.0 mm W/m2
Compliments of Weather Underground - 2 mb